Time;durP1;ratioP1;P1;durP2;ratioP2;P2;SDS_P1;SDS_P2;PMS_P1;PMS_P2;Temp;Humidity;BMP_temperature;BMP_pressure;BME280_temperature;BME280_humidity;BME280_pressure;Samples;Min_cycle;Max_cycle;Signal;HPM_P1;HPM_P2
2024/03/10 00:00:43;;;;;;;17.63;13.95;;;;;;;;;;4993528;28;20234;-83
2024/03/10 00:03:12;;;;;;;20.52;14.57;;;;;;;;;;4993105;28;20748;-82
2024/03/10 00:05:40;;;;;;;16.60;13.27;;;;;;;;;;4996002;28;20573;-84
2024/03/10 00:08:09;;;;;;;23.23;13.32;;;;;;;;;;5008619;28;20260;-84
2024/03/10 00:10:40;;;;;;;16.83;13.98;;;;;;;;;;4998577;28;20206;-81
2024/03/10 00:13:10;;;;;;;17.20;14.10;;;;;;;;;;4989529;28;20203;-82
2024/03/10 00:15:39;;;;;;;16.17;13.77;;;;;;;;;;4998284;28;20206;-83
2024/03/10 00:18:08;;;;;;;16.13;14.13;;;;;;;;;;4991552;28;20203;-83
2024/03/10 00:20:36;;;;;;;15.73;13.18;;;;;;;;;;5003548;28;20596;-83
2024/03/10 00:23:05;;;;;;;17.63;14.15;;;;;;;;;;4997609;28;20205;-83
2024/03/10 00:25:33;;;;;;;18.73;13.88;;;;;;;;;;5000095;28;20677;-83
2024/03/10 00:28:03;;;;;;;15.15;12.82;;;;;;;;;;4995837;28;20209;-83
2024/03/10 00:30:33;;;;;;;22.02;15.85;;;;;;;;;;5001076;28;20233;-83
2024/03/10 00:33:01;;;;;;;15.65;11.77;;;;;;;;;;4996168;28;20578;-83
2024/03/10 00:35:30;;;;;;;14.45;12.30;;;;;;;;;;4994374;28;20217;-82
2024/03/10 00:37:59;;;;;;;17.50;13.25;;;;;;;;;;5009422;28;20210;-82
2024/03/10 00:40:27;;;;;;;14.45;12.63;;;;;;;;;;5000671;28;20276;-82
2024/03/10 00:42:56;;;;;;;14.95;12.98;;;;;;;;;;5005266;28;20234;-82
2024/03/10 00:45:24;;;;;;;21.35;13.10;;;;;;;;;;5001947;28;20206;-82
2024/03/10 00:47:54;;;;;;;20.75;13.45;;;;;;;;;;5003490;28;20219;-82
2024/03/10 00:50:22;;;;;;;14.60;12.88;;;;;;;;;;5002368;28;20194;-82
2024/03/10 00:52:51;;;;;;;14.52;12.73;;;;;;;;;;4999959;28;20241;-82
2024/03/10 00:55:19;;;;;;;17.75;14.05;;;;;;;;;;4992149;28;20206;-82
2024/03/10 00:57:48;;;;;;;16.05;13.02;;;;;;;;;;4998324;28;20210;-82
2024/03/10 01:00:17;;;;;;;14.80;12.98;;;;;;;;;;4992246;28;20233;-82
2024/03/10 01:02:47;;;;;;;14.43;12.30;;;;;;;;;;4999893;28;20613;-81
2024/03/10 01:05:17;;;;;;;15.80;12.63;;;;;;;;;;5015072;28;20218;-81
2024/03/10 01:07:45;;;;;;;13.95;12.38;;;;;;;;;;5003499;28;20395;-81
2024/03/10 01:10:13;;;;;;;18.55;14.77;;;;;;;;;;5001595;28;20276;-81
2024/03/10 01:12:42;;;;;;;12.48;11.18;;;;;;;;;;5005167;28;20202;-81
2024/03/10 01:15:10;;;;;;;13.95;11.70;;;;;;;;;;4996610;28;20217;-81
2024/03/10 01:17:38;;;;;;;19.02;11.52;;;;;;;;;;5009837;28;20270;-79
2024/03/10 01:20:06;;;;;;;12.65;11.23;;;;;;;;;;5007861;28;20211;-81
2024/03/10 01:22:36;;;;;;;13.02;11.73;;;;;;;;;;5005779;28;20758;-82
2024/03/10 01:25:04;;;;;;;14.88;10.82;;;;;;;;;;4994062;28;20222;-82
2024/03/10 01:27:32;;;;;;;12.82;11.45;;;;;;;;;;4998541;28;20222;-82
2024/03/10 01:30:00;;;;;;;14.90;11.90;;;;;;;;;;4995888;28;20704;-82
2024/03/10 01:32:29;;;;;;;17.08;12.50;;;;;;;;;;5004600;28;20211;-82
2024/03/10 01:34:58;;;;;;;13.30;11.60;;;;;;;;;;4997326;28;20236;-82
2024/03/10 01:37:26;;;;;;;15.35;12.20;;;;;;;;;;5004176;28;20210;-81
2024/03/10 01:39:55;;;;;;;15.95;12.63;;;;;;;;;;4998552;28;20695;-82
2024/03/10 01:42:24;;;;;;;12.27;10.45;;;;;;;;;;4999631;28;20264;-81
2024/03/10 01:44:53;;;;;;;14.25;11.43;;;;;;;;;;4997822;28;20209;-82
2024/03/10 01:47:21;;;;;;;13.13;11.80;;;;;;;;;;5003167;28;20222;-82
2024/03/10 01:49:50;;;;;;;13.95;11.93;;;;;;;;;;4998844;28;20323;-83
2024/03/10 01:52:19;;;;;;;11.50;10.30;;;;;;;;;;4997233;28;20210;-83
2024/03/10 01:54:48;;;;;;;12.13;10.40;;;;;;;;;;4995938;28;20222;-83
2024/03/10 01:57:18;;;;;;;13.85;11.77;;;;;;;;;;4994632;28;20202;-83
2024/03/10 01:59:46;;;;;;;13.88;11.25;;;;;;;;;;5000854;28;20702;-83
2024/03/10 02:02:15;;;;;;;12.68;11.38;;;;;;;;;;4997511;28;20242;-82
2024/03/10 02:04:46;;;;;;;12.65;10.30;;;;;;;;;;5000020;28;20205;-83
2024/03/10 02:07:17;;;;;;;11.45;10.35;;;;;;;;;;4998243;28;20194;-82
2024/03/10 02:09:47;;;;;;;11.95;10.75;;;;;;;;;;5002946;28;20210;-81
2024/03/10 02:12:15;;;;;;;11.90;10.68;;;;;;;;;;5011129;28;20638;-82
2024/03/10 02:14:57;;;;;;;15.10;11.93;;;;;;;;;;5002068;28;20270;-82
2024/03/10 02:17:26;;;;;;;11.88;10.77;;;;;;;;;;5005559;28;20699;-82
2024/03/10 02:19:56;;;;;;;12.63;11.02;;;;;;;;;;5001398;28;20205;-81
2024/03/10 02:22:26;;;;;;;11.23;10.02;;;;;;;;;;5004117;28;20214;-84
2024/03/10 02:24:57;;;;;;;11.65;10.52;;;;;;;;;;5007532;28;20208;-82
2024/03/10 02:27:28;;;;;;;10.57;9.57;;;;;;;;;;5006621;28;20213;-84
2024/03/10 02:30:18;;;;;;;11.20;10.07;;;;;;;;;;5005528;28;20203;-83
2024/03/10 02:49:33;;;;;;;11.60;10.38;;;;;;;;;;5004481;28;20586;-82
2024/03/10 02:52:01;;;;;;;12.00;9.75;;;;;;;;;;4997435;28;20659;-83
2024/03/10 02:54:30;;;;;;;10.25;9.25;;;;;;;;;;5000917;28;20221;-83
2024/03/10 02:56:58;;;;;;;9.23;8.52;;;;;;;;;;5006083;28;20294;-83
2024/03/10 02:59:29;;;;;;;10.60;8.52;;;;;;;;;;4998365;28;20217;-83
2024/03/10 03:01:58;;;;;;;10.50;9.40;;;;;;;;;;5001958;28;20238;-83
2024/03/10 03:04:28;;;;;;;9.60;8.68;;;;;;;;;;5000110;28;20700;-83
2024/03/10 03:06:56;;;;;;;10.13;9.23;;;;;;;;;;4998039;28;20206;-82
2024/03/10 03:09:24;;;;;;;11.32;10.32;;;;;;;;;;5004583;28;20703;-83
2024/03/10 03:11:53;;;;;;;10.05;8.82;;;;;;;;;;5002346;28;20206;-83
2024/03/10 03:14:21;;;;;;;10.10;9.20;;;;;;;;;;4992375;28;20245;-83
2024/03/10 03:16:51;;;;;;;9.02;8.23;;;;;;;;;;4998421;28;20210;-83
2024/03/10 03:19:19;;;;;;;9.70;8.80;;;;;;;;;;4991069;28;20206;-83
2024/03/10 03:21:47;;;;;;;9.30;8.52;;;;;;;;;;4995858;28;20657;-83
2024/03/10 03:24:16;;;;;;;8.80;8.00;;;;;;;;;;4999859;28;20238;-83
2024/03/10 03:26:44;;;;;;;16.80;9.10;;;;;;;;;;4999042;28;20209;-82
2024/03/10 03:29:13;;;;;;;11.57;10.35;;;;;;;;;;5006515;28;20210;-83
2024/03/10 03:31:42;;;;;;;10.60;9.50;;;;;;;;;;4992738;28;20746;-83
2024/03/10 03:34:12;;;;;;;9.15;8.25;;;;;;;;;;5004492;28;20700;-83
2024/03/10 03:36:41;;;;;;;11.35;10.07;;;;;;;;;;4999744;28;20259;-83
2024/03/10 03:39:11;;;;;;;12.65;10.48;;;;;;;;;;5007966;28;20206;-83
2024/03/10 03:41:39;;;;;;;11.07;9.85;;;;;;;;;;4989198;28;20214;-82
2024/03/10 03:44:08;;;;;;;10.13;9.13;;;;;;;;;;5000481;28;20229;-82
2024/03/10 03:46:36;;;;;;;11.85;10.18;;;;;;;;;;4990223;28;20218;-83
2024/03/10 03:49:05;;;;;;;10.80;9.80;;;;;;;;;;4999238;28;20204;-83
2024/03/10 03:51:35;;;;;;;12.20;9.77;;;;;;;;;;4994231;28;20218;-83
2024/03/10 03:54:05;;;;;;;10.55;9.55;;;;;;;;;;5000137;28;20202;-83
2024/03/10 03:56:34;;;;;;;10.70;9.15;;;;;;;;;;5015181;28;20214;-82
2024/03/10 03:59:03;;;;;;;10.77;9.40;;;;;;;;;;4992559;28;20214;-82
2024/03/10 04:01:31;;;;;;;10.10;9.20;;;;;;;;;;4991340;28;20542;-81
2024/03/10 04:04:01;;;;;;;10.70;9.80;;;;;;;;;;4994988;28;20232;-82
2024/03/10 04:06:29;;;;;;;12.38;8.90;;;;;;;;;;4990823;28;20264;-81
2024/03/10 04:08:59;;;;;;;10.63;9.52;;;;;;;;;;4991771;28;20205;-84
2024/03/10 04:11:27;;;;;;;10.52;9.52;;;;;;;;;;5000814;28;20212;-83
2024/03/10 04:13:56;;;;;;;10.52;9.52;;;;;;;;;;4999526;28;20289;-83
2024/03/10 04:16:24;;;;;;;9.98;8.88;;;;;;;;;;4999193;28;20214;-84
2024/03/10 04:18:53;;;;;;;10.30;9.07;;;;;;;;;;5001786;28;20256;-83
2024/03/10 04:21:21;;;;;;;13.00;9.77;;;;;;;;;;5002103;28;20217;-83
2024/03/10 04:23:51;;;;;;;10.50;9.20;;;;;;;;;;5016687;28;20241;-84
2024/03/10 04:26:22;;;;;;;11.93;9.57;;;;;;;;;;4995965;28;20277;-84
2024/03/10 04:28:51;;;;;;;11.00;9.68;;;;;;;;;;5001500;28;20243;-84
2024/03/10 04:31:19;;;;;;;10.82;9.82;;;;;;;;;;4999091;28;20631;-84
2024/03/10 04:33:47;;;;;;;11.27;9.93;;;;;;;;;;4997606;28;20280;-84
2024/03/10 04:36:16;;;;;;;11.20;10.07;;;;;;;;;;5003831;28;20723;-84
2024/03/10 04:38:45;;;;;;;10.98;9.20;;;;;;;;;;5000677;28;20219;-84
2024/03/10 04:41:13;;;;;;;12.80;9.43;;;;;;;;;;5006713;28;20218;-84
2024/03/10 04:43:44;;;;;;;10.63;9.40;;;;;;;;;;5000292;28;20233;-84
2024/03/10 04:46:12;;;;;;;11.88;9.77;;;;;;;;;;4994251;28;20211;-84
2024/03/10 04:48:40;;;;;;;10.65;9.07;;;;;;;;;;5001197;28;20224;-84
2024/03/10 04:51:09;;;;;;;9.02;8.13;;;;;;;;;;5000207;28;20692;-84
2024/03/10 04:53:37;;;;;;;9.80;8.60;;;;;;;;;;4997398;28;20206;-84
2024/03/10 04:56:07;;;;;;;9.68;8.77;;;;;;;;;;5002900;28;20214;-84
2024/03/10 04:58:35;;;;;;;9.82;8.82;;;;;;;;;;4990128;28;20946;-83
2024/03/10 05:01:08;;;;;;;14.02;9.75;;;;;;;;;;5006097;28;20216;-83
2024/03/10 05:03:37;;;;;;;9.40;8.40;;;;;;;;;;5006100;28;20236;-83
2024/03/10 05:06:06;;;;;;;9.10;8.20;;;;;;;;;;5004207;28;20678;-83
2024/03/10 05:08:35;;;;;;;9.63;8.75;;;;;;;;;;4996416;28;20217;-83
2024/03/10 05:11:04;;;;;;;12.52;8.35;;;;;;;;;;5002833;28;20212;-84
2024/03/10 05:13:35;;;;;;;9.57;8.57;;;;;;;;;;4999603;28;20216;-83
2024/03/10 05:16:06;;;;;;;11.80;9.10;;;;;;;;;;4998573;28;20201;-83
2024/03/10 05:18:35;;;;;;;11.30;9.85;;;;;;;;;;4996973;28;20676;-83
2024/03/10 05:21:05;;;;;;;10.20;9.20;;;;;;;;;;5018834;28;20210;-83
2024/03/10 05:23:33;;;;;;;16.90;10.02;;;;;;;;;;4998194;28;20228;-83
2024/03/10 05:26:02;;;;;;;9.20;8.40;;;;;;;;;;4996298;28;20214;-84
2024/03/10 05:28:32;;;;;;;11.35;8.18;;;;;;;;;;5000449;28;20743;-83
2024/03/10 05:31:00;;;;;;;10.85;9.63;;;;;;;;;;5001469;28;20232;-83
2024/03/10 05:33:30;;;;;;;9.45;8.55;;;;;;;;;;4998737;28;20208;-83
2024/03/10 05:36:01;;;;;;;12.38;10.52;;;;;;;;;;5000956;28;20210;-83
2024/03/10 05:38:30;;;;;;;10.63;9.63;;;;;;;;;;4995000;28;20203;-83
2024/03/10 05:40:58;;;;;;;10.35;9.30;;;;;;;;;;4996628;28;20209;-83
2024/03/10 05:43:27;;;;;;;10.30;9.13;;;;;;;;;;5003455;28;20229;-82
2024/03/10 05:45:55;;;;;;;9.32;8.52;;;;;;;;;;5001014;28;20204;-82
2024/03/10 05:48:24;;;;;;;10.50;9.40;;;;;;;;;;5004479;28;20207;-82
2024/03/10 05:50:54;;;;;;;9.45;8.30;;;;;;;;;;4997893;28;20218;-82
2024/03/10 05:53:22;;;;;;;9.32;8.20;;;;;;;;;;5004275;28;20201;-82
2024/03/10 05:55:52;;;;;;;9.25;8.35;;;;;;;;;;5008259;28;20209;-83
2024/03/10 05:58:21;;;;;;;10.77;9.70;;;;;;;;;;5017790;28;20673;-83
2024/03/10 06:00:51;;;;;;;10.55;9.55;;;;;;;;;;4994564;28;20256;-83
2024/03/10 06:03:20;;;;;;;12.73;8.02;;;;;;;;;;5000501;28;20288;-83
2024/03/10 06:05:48;;;;;;;10.23;9.32;;;;;;;;;;5005350;28;20206;-83
2024/03/10 06:08:18;;;;;;;9.93;8.93;;;;;;;;;;4994298;28;20206;-82
2024/03/10 06:10:47;;;;;;;9.45;8.50;;;;;;;;;;5001031;28;20711;-81
2024/03/10 06:13:17;;;;;;;11.25;9.02;;;;;;;;;;4994735;28;20214;-82
2024/03/10 06:15:45;;;;;;;11.07;10.05;;;;;;;;;;5007847;28;20202;-83
2024/03/10 06:18:18;;;;;;;10.75;8.98;;;;;;;;;;5001227;28;20213;-82
2024/03/10 06:26:21;;;;;;;10.35;8.77;;;;;;;;;;5004232;28;20689;-83
2024/03/10 06:28:50;;;;;;;10.25;9.25;;;;;;;;;;4997226;28;20678;-86
2024/03/10 06:31:18;;;;;;;9.15;8.25;;;;;;;;;;4995639;28;20288;-83
2024/03/10 06:33:48;;;;;;;11.15;9.13;;;;;;;;;;5001239;28;20661;-83
2024/03/10 06:36:21;;;;;;;10.68;9.38;;;;;;;;;;5000307;28;20224;-83
2024/03/10 06:38:51;;;;;;;14.10;7.90;;;;;;;;;;5003118;28;20210;-81
2024/03/10 06:41:22;;;;;;;8.85;8.05;;;;;;;;;;4984736;28;20204;-85
2024/03/10 06:43:52;;;;;;;8.98;8.07;;;;;;;;;;4994686;28;20722;-83
2024/03/10 06:46:21;;;;;;;10.13;9.13;;;;;;;;;;5005261;28;20699;-82
2024/03/10 06:48:49;;;;;;;10.95;8.57;;;;;;;;;;4993808;28;20217;-84
2024/03/10 06:51:19;;;;;;;10.35;9.02;;;;;;;;;;5004194;28;20209;-85
2024/03/10 06:53:48;;;;;;;8.55;7.75;;;;;;;;;;5008232;28;20214;-85
2024/03/10 06:56:17;;;;;;;11.70;8.63;;;;;;;;;;5006511;28;20691;-85
2024/03/10 06:58:51;;;;;;;9.07;8.18;;;;;;;;;;5002171;28;20222;-85
2024/03/10 07:01:21;;;;;;;8.82;7.93;;;;;;;;;;4997959;28;20220;-81
2024/03/10 07:03:49;;;;;;;11.35;9.00;;;;;;;;;;5006806;28;20226;-81
2024/03/10 07:06:21;;;;;;;10.43;9.32;;;;;;;;;;4999817;28;20213;-80
2024/03/10 07:08:50;;;;;;;10.95;9.80;;;;;;;;;;5008164;28;20236;-81
2024/03/10 07:11:19;;;;;;;10.10;9.15;;;;;;;;;;4999509;28;20257;-80
2024/03/10 07:13:48;;;;;;;11.30;9.68;;;;;;;;;;5023723;28;20260;-81
2024/03/10 07:16:16;;;;;;;9.25;8.40;;;;;;;;;;5005139;28;20594;-81
2024/03/10 07:18:46;;;;;;;9.77;8.88;;;;;;;;;;4991046;28;20214;-81
2024/03/10 07:21:17;;;;;;;9.40;8.40;;;;;;;;;;5015308;28;20683;-81
2024/03/10 07:23:46;;;;;;;9.95;8.95;;;;;;;;;;5009766;28;20217;-81
2024/03/10 07:26:14;;;;;;;9.40;8.48;;;;;;;;;;4994496;28;20283;-82
2024/03/10 07:28:44;;;;;;;9.23;8.20;;;;;;;;;;5004267;28;20214;-87
2024/03/10 07:31:12;;;;;;;10.27;9.27;;;;;;;;;;4995864;28;20208;-84
2024/03/10 07:33:41;;;;;;;10.02;8.50;;;;;;;;;;4998317;28;20205;-82
2024/03/10 07:36:09;;;;;;;10.35;9.07;;;;;;;;;;4994025;28;20234;-79
2024/03/10 07:38:38;;;;;;;9.38;8.48;;;;;;;;;;4987316;28;20821;-80
2024/03/10 07:41:06;;;;;;;13.32;9.88;;;;;;;;;;4994236;28;20211;-79
2024/03/10 07:43:34;;;;;;;10.82;8.60;;;;;;;;;;4985225;28;20205;-77
2024/03/10 07:46:05;;;;;;;9.88;8.93;;;;;;;;;;4990300;28;20226;-76
2024/03/10 07:48:33;;;;;;;8.63;7.82;;;;;;;;;;4983027;28;20265;-76
2024/03/10 07:51:03;;;;;;;9.57;8.60;;;;;;;;;;5005073;28;20214;-77
2024/03/10 07:53:32;;;;;;;12.05;9.43;;;;;;;;;;4993793;28;20214;-78
2024/03/10 07:56:01;;;;;;;10.90;9.80;;;;;;;;;;5012435;28;20206;-78
2024/03/10 07:58:30;;;;;;;11.23;8.75;;;;;;;;;;5001901;28;20688;-78
2024/03/10 08:00:58;;;;;;;10.05;9.05;;;;;;;;;;4998637;28;20210;-77
2024/03/10 08:03:29;;;;;;;13.68;10.68;;;;;;;;;;4995528;28;20291;-78
2024/03/10 08:05:57;;;;;;;10.60;8.85;;;;;;;;;;5001104;28;20223;-78
2024/03/10 08:08:25;;;;;;;12.80;10.20;;;;;;;;;;4992777;28;20217;-79
2024/03/10 08:10:55;;;;;;;11.63;9.20;;;;;;;;;;5003432;28;20210;-78
2024/03/10 08:13:24;;;;;;;9.45;8.45;;;;;;;;;;4995491;28;20214;-80
2024/03/10 08:15:52;;;;;;;12.25;10.45;;;;;;;;;;4993133;28;20249;-78
2024/03/10 08:18:21;;;;;;;10.73;9.57;;;;;;;;;;4985506;28;20638;-80
2024/03/10 08:20:53;;;;;;;14.27;10.35;;;;;;;;;;4989000;28;20216;-79
2024/03/10 08:23:22;;;;;;;10.32;9.32;;;;;;;;;;4983412;28;20200;-80
2024/03/10 08:25:53;;;;;;;11.75;10.73;;;;;;;;;;4992601;28;20245;-79
2024/03/10 08:28:21;;;;;;;10.35;9.35;;;;;;;;;;4992976;28;20210;-78
2024/03/10 08:30:50;;;;;;;12.82;11.63;;;;;;;;;;4995620;28;20212;-78
2024/03/10 08:33:18;;;;;;;13.50;11.60;;;;;;;;;;4995265;28;20681;-80
2024/03/10 08:35:47;;;;;;;10.30;9.40;;;;;;;;;;4999409;28;20583;-77
2024/03/10 08:38:16;;;;;;;11.02;9.93;;;;;;;;;;5010199;28;20207;-79
2024/03/10 08:40:45;;;;;;;12.02;10.93;;;;;;;;;;5003979;28;20206;-78
2024/03/10 08:43:13;;;;;;;11.57;10.38;;;;;;;;;;4998651;28;20685;-78
2024/03/10 08:45:42;;;;;;;11.93;10.77;;;;;;;;;;4998702;28;20727;-78
2024/03/10 08:48:11;;;;;;;11.35;10.00;;;;;;;;;;4986331;28;20222;-78
2024/03/10 08:50:40;;;;;;;12.10;10.90;;;;;;;;;;5002873;28;20223;-78
2024/03/10 08:53:08;;;;;;;11.90;9.90;;;;;;;;;;4998389;28;20701;-78
2024/03/10 08:55:38;;;;;;;14.68;10.73;;;;;;;;;;5007840;28;20206;-78
2024/03/10 08:58:06;;;;;;;11.30;10.20;;;;;;;;;;5005189;28;20214;-78
2024/03/10 09:00:34;;;;;;;12.40;11.05;;;;;;;;;;5005323;28;20214;-79
2024/03/10 09:03:04;;;;;;;16.05;11.32;;;;;;;;;;4988750;28;20721;-80
2024/03/10 09:05:32;;;;;;;11.45;10.32;;;;;;;;;;5000321;28;21422;-78
2024/03/10 09:08:01;;;;;;;12.48;11.13;;;;;;;;;;5000030;28;20214;-80
2024/03/10 09:10:29;;;;;;;12.60;10.88;;;;;;;;;;4998366;28;20268;-79
2024/03/10 09:12:59;;;;;;;11.95;10.85;;;;;;;;;;5002890;28;20213;-79
2024/03/10 09:15:27;;;;;;;13.65;11.02;;;;;;;;;;5009296;28;20206;-79
2024/03/10 09:17:56;;;;;;;12.48;11.20;;;;;;;;;;5010789;28;20201;-80
2024/03/10 09:20:26;;;;;;;11.70;10.63;;;;;;;;;;5010189;28;20208;-80
2024/03/10 09:22:54;;;;;;;13.23;12.02;;;;;;;;;;5001398;28;20198;-78
2024/03/10 09:25:23;;;;;;;14.35;12.50;;;;;;;;;;5009438;28;20234;-79
2024/03/10 09:27:52;;;;;;;11.70;10.52;;;;;;;;;;5005627;28;20210;-79
2024/03/10 09:30:22;;;;;;;12.88;11.48;;;;;;;;;;4998234;28;20274;-79
2024/03/10 09:32:54;;;;;;;12.98;11.73;;;;;;;;;;5002686;28;20248;-79
2024/03/10 09:35:24;;;;;;;12.23;10.93;;;;;;;;;;4997197;28;20791;-79
2024/03/10 09:37:53;;;;;;;11.10;10.10;;;;;;;;;;4995791;28;20211;-79
2024/03/10 09:40:25;;;;;;;12.95;11.65;;;;;;;;;;5004297;28;20638;-79
2024/03/10 09:42:55;;;;;;;12.02;10.93;;;;;;;;;;5004073;28;20214;-79
2024/03/10 09:45:27;;;;;;;13.02;11.73;;;;;;;;;;4995809;28;20280;-79
2024/03/10 09:47:58;;;;;;;11.30;10.30;;;;;;;;;;5004008;28;20213;-78
2024/03/10 09:50:28;;;;;;;12.47;11.37;;;;;;;;;;5003524;28;20233;-78
2024/03/10 09:52:58;;;;;;;11.37;10.37;;;;;;;;;;5002008;28;20587;-77
2024/03/10 09:55:27;;;;;;;13.23;11.80;;;;;;;;;;5004342;28;20625;-79
2024/03/10 09:57:56;;;;;;;11.60;10.38;;;;;;;;;;5006451;28;21005;-79
2024/03/10 10:00:27;;;;;;;14.35;11.07;;;;;;;;;;5004399;28;20220;-78
2024/03/10 10:02:58;;;;;;;13.20;11.10;;;;;;;;;;5006474;28;20238;-79
2024/03/10 10:05:29;;;;;;;12.80;11.60;;;;;;;;;;5008734;28;21223;-79
2024/03/10 10:07:58;;;;;;;12.70;11.50;;;;;;;;;;5002500;28;20723;-78
2024/03/10 10:10:27;;;;;;;13.27;11.97;;;;;;;;;;5004017;28;20644;-79
2024/03/10 10:12:56;;;;;;;11.70;10.70;;;;;;;;;;5006092;28;20600;-78
2024/03/10 10:15:27;;;;;;;11.97;10.87;;;;;;;;;;5004754;28;20620;-78
2024/03/10 10:17:56;;;;;;;12.47;11.37;;;;;;;;;;5007779;28;20600;-78
2024/03/10 10:20:26;;;;;;;13.47;11.10;;;;;;;;;;5018530;28;20611;-78
2024/03/10 10:22:55;;;;;;;12.87;11.70;;;;;;;;;;5000302;28;21164;-78
2024/03/10 10:25:23;;;;;;;13.10;11.90;;;;;;;;;;4985956;28;20608;-79
2024/03/10 10:27:52;;;;;;;13.80;11.20;;;;;;;;;;5006198;28;20632;-78
2024/03/10 10:30:22;;;;;;;13.53;12.17;;;;;;;;;;5003663;28;21211;-78
2024/03/10 10:33:03;;;;;;;12.33;11.23;;;;;;;;;;5004644;28;20637;-78
2024/03/10 10:35:39;;;;;;;12.80;11.60;;;;;;;;;;5003436;28;21242;-79
2024/03/10 10:38:12;;;;;;;13.70;12.50;;;;;;;;;;5005577;28;20975;-79
2024/03/10 10:40:40;;;;;;;13.23;11.93;;;;;;;;;;5004603;28;20959;-80
2024/03/10 10:43:10;;;;;;;12.40;11.40;;;;;;;;;;4998426;28;21223;-79
2024/03/10 10:45:38;;;;;;;12.97;11.70;;;;;;;;;;5007404;28;20672;-80
2024/03/10 10:48:08;;;;;;;15.07;12.60;;;;;;;;;;5006962;28;21187;-78
2024/03/10 10:50:37;;;;;;;14.43;13.13;;;;;;;;;;4998014;28;20601;-79
2024/03/10 10:53:06;;;;;;;12.20;11.20;;;;;;;;;;4991061;28;20630;-79
2024/03/10 10:55:38;;;;;;;13.40;12.20;;;;;;;;;;5004529;28;21138;-79
2024/03/10 10:58:06;;;;;;;12.20;11.27;;;;;;;;;;5006074;28;20606;-79
2024/03/10 11:00:35;;;;;;;13.77;12.57;;;;;;;;;;5004127;28;20603;-79
2024/03/10 11:03:16;;;;;;;14.93;12.83;;;;;;;;;;5000574;28;21243;-79
2024/03/10 11:05:46;;;;;;;14.23;13.03;;;;;;;;;;4999295;28;20649;-79
2024/03/10 11:08:16;;;;;;;13.70;12.50;;;;;;;;;;5005612;28;20628;-78
2024/03/10 11:10:47;;;;;;;14.73;13.10;;;;;;;;;;5000289;28;20580;-78
2024/03/10 11:13:15;;;;;;;14.63;13.43;;;;;;;;;;5004804;28;20612;-78
2024/03/10 11:15:44;;;;;;;14.23;13.00;;;;;;;;;;4982859;28;20633;-79
2024/03/10 11:18:26;;;;;;;13.80;12.50;;;;;;;;;;5000635;28;20647;-79
2024/03/10 11:20:56;;;;;;;13.70;12.60;;;;;;;;;;4999363;28;20633;-79
2024/03/10 11:23:26;;;;;;;14.33;13.13;;;;;;;;;;5002826;28;20652;-79
2024/03/10 11:25:54;;;;;;;14.07;12.90;;;;;;;;;;5006085;28;20664;-79
2024/03/10 11:28:25;;;;;;;14.70;13.47;;;;;;;;;;5001092;28;20622;-80
2024/03/10 11:30:57;;;;;;;13.33;12.27;;;;;;;;;;5003219;28;20621;-80
2024/03/10 11:33:27;;;;;;;15.80;14.17;;;;;;;;;;5000688;28;20743;-79
2024/03/10 11:35:56;;;;;;;13.87;12.77;;;;;;;;;;5005517;28;20621;-79
2024/03/10 11:38:31;;;;;;;15.00;13.80;;;;;;;;;;4996184;28;20600;-79
2024/03/10 11:41:01;;;;;;;14.30;13.10;;;;;;;;;;4982404;28;20633;-80
2024/03/10 11:43:32;;;;;;;15.73;14.17;;;;;;;;;;5016930;28;21490;-79
2024/03/10 11:46:00;;;;;;;16.57;14.83;;;;;;;;;;5006559;28;20628;-78
2024/03/10 11:48:32;;;;;;;15.13;13.90;;;;;;;;;;5002685;28;21199;-79
2024/03/10 11:51:02;;;;;;;15.73;14.53;;;;;;;;;;4999230;28;20633;-79
2024/03/10 11:53:31;;;;;;;15.70;14.50;;;;;;;;;;5001777;28;20697;-80
2024/03/10 11:56:01;;;;;;;14.97;13.87;;;;;;;;;;4999775;28;20625;-80
2024/03/10 11:58:29;;;;;;;16.60;15.03;;;;;;;;;;5001246;28;20628;-78
2024/03/10 12:00:57;;;;;;;16.73;15.50;;;;;;;;;;4998718;28;20634;-78
2024/03/10 12:03:28;;;;;;;17.50;16.20;;;;;;;;;;5002991;28;21278;-79
2024/03/10 12:05:58;;;;;;;15.90;14.70;;;;;;;;;;5004663;28;20635;-79
2024/03/10 12:08:27;;;;;;;15.87;14.80;;;;;;;;;;5001419;28;20604;-78
2024/03/10 12:11:00;;;;;;;17.77;16.33;;;;;;;;;;4998399;28;21010;-79
2024/03/10 12:13:29;;;;;;;17.57;16.27;;;;;;;;;;4985784;28;21165;-80
2024/03/10 12:15:59;;;;;;;19.43;17.93;;;;;;;;;;5005548;28;20624;-80
2024/03/10 12:18:27;;;;;;;18.20;16.70;;;;;;;;;;5001239;28;20625;-79
2024/03/10 12:20:59;;;;;;;18.70;17.17;;;;;;;;;;4997753;28;20636;-79
2024/03/10 12:23:33;;;;;;;36.77;33.03;;;;;;;;;;4995372;28;20626;-78
2024/03/10 12:26:09;;;;;;;18.67;17.17;;;;;;;;;;4996127;28;20629;-79
2024/03/10 12:28:37;;;;;;;24.77;22.43;;;;;;;;;;4992897;28;20641;-80
2024/03/10 12:31:13;;;;;;;19.90;18.40;;;;;;;;;;4997464;28;20635;-80
2024/03/10 12:33:41;;;;;;;20.70;18.97;;;;;;;;;;5005116;28;20632;-80
2024/03/10 12:36:10;;;;;;;22.77;20.63;;;;;;;;;;5002694;28;20636;-81
2024/03/10 12:38:40;;;;;;;20.70;18.90;;;;;;;;;;4991515;28;20634;-79
2024/03/10 12:41:09;;;;;;;18.90;17.50;;;;;;;;;;4997268;28;20637;-80
2024/03/10 12:43:37;;;;;;;18.80;17.07;;;;;;;;;;5001154;28;20625;-79
2024/03/10 12:46:06;;;;;;;19.50;18.00;;;;;;;;;;4998873;28;20668;-77
2024/03/10 12:48:34;;;;;;;18.93;17.37;;;;;;;;;;5000530;28;20676;-78
2024/03/10 12:51:02;;;;;;;19.60;18.20;;;;;;;;;;4994454;28;20625;-79
2024/03/10 12:53:32;;;;;;;18.60;17.20;;;;;;;;;;4995758;28;21211;-79
2024/03/10 12:56:03;;;;;;;21.10;19.17;;;;;;;;;;5003515;28;20664;-77
2024/03/10 12:58:32;;;;;;;17.70;16.30;;;;;;;;;;5000541;28;20674;-79
2024/03/10 13:01:01;;;;;;;17.93;16.53;;;;;;;;;;5004579;28;20619;-78
2024/03/10 13:03:31;;;;;;;16.37;15.13;;;;;;;;;;4991916;28;20724;-78
2024/03/10 13:05:59;;;;;;;27.47;23.30;;;;;;;;;;4993033;28;20617;-78
2024/03/10 13:08:35;;;;;;;20.13;18.27;;;;;;;;;;5000284;28;20657;-78
2024/03/10 13:11:05;;;;;;;23.30;21.10;;;;;;;;;;4998214;28;20635;-79
2024/03/10 13:13:34;;;;;;;18.07;16.60;;;;;;;;;;4992611;28;20648;-80
2024/03/10 13:16:02;;;;;;;17.23;16.00;;;;;;;;;;4993503;28;20621;-78
2024/03/10 13:18:30;;;;;;;18.70;17.20;;;;;;;;;;4999586;28;20632;-79
2024/03/10 13:20:59;;;;;;;17.20;15.90;;;;;;;;;;5005390;28;20621;-79
2024/03/10 13:23:28;;;;;;;18.80;17.27;;;;;;;;;;4994675;28;21016;-79
2024/03/10 13:25:56;;;;;;;17.47;16.17;;;;;;;;;;5006714;28;20617;-78
2024/03/10 13:28:26;;;;;;;17.37;15.90;;;;;;;;;;4995139;28;21052;-79
2024/03/10 13:30:56;;;;;;;19.63;17.83;;;;;;;;;;4998586;28;20620;-79
2024/03/10 13:33:25;;;;;;;18.70;17.10;;;;;;;;;;4992160;28;20626;-79
2024/03/10 13:35:53;;;;;;;20.60;18.80;;;;;;;;;;5004354;28;21039;-79
2024/03/10 13:38:22;;;;;;;27.63;25.10;;;;;;;;;;5000825;28;20631;-79
2024/03/10 13:40:50;;;;;;;18.30;16.90;;;;;;;;;;4998473;28;20617;-79
2024/03/10 13:43:19;;;;;;;18.83;17.43;;;;;;;;;;5003011;28;20602;-77
2024/03/10 13:45:50;;;;;;;18.13;16.70;;;;;;;;;;5002676;28;20631;-79
2024/03/10 13:48:18;;;;;;;18.13;16.53;;;;;;;;;;5002790;28;20673;-79
2024/03/10 13:50:48;;;;;;;18.70;17.10;;;;;;;;;;5003365;28;20647;-79
2024/03/10 13:53:18;;;;;;;16.83;15.63;;;;;;;;;;4989906;28;20626;-80
2024/03/10 13:55:47;;;;;;;17.07;15.77;;;;;;;;;;4993678;28;20633;-79
2024/03/10 13:58:16;;;;;;;17.23;15.80;;;;;;;;;;4999522;28;20617;-79
2024/03/10 14:00:45;;;;;;;17.10;15.70;;;;;;;;;;4998693;28;20621;-79
2024/03/10 14:03:15;;;;;;;17.27;16.03;;;;;;;;;;4998079;28;20673;-79
2024/03/10 14:05:43;;;;;;;18.23;16.57;;;;;;;;;;4994470;28;20600;-81
2024/03/10 14:08:12;;;;;;;16.63;15.40;;;;;;;;;;4994037;28;21366;-79
2024/03/10 14:10:41;;;;;;;17.97;16.60;;;;;;;;;;5003421;28;20624;-79
2024/03/10 14:13:09;;;;;;;17.97;16.47;;;;;;;;;;4995020;28;20677;-81
2024/03/10 14:15:38;;;;;;;16.10;14.90;;;;;;;;;;4995259;28;21253;-80
2024/03/10 14:18:07;;;;;;;15.87;14.43;;;;;;;;;;4995559;28;20629;-80
2024/03/10 14:20:37;;;;;;;17.97;16.43;;;;;;;;;;4994334;28;20621;-81
2024/03/10 14:23:05;;;;;;;16.50;15.03;;;;;;;;;;4990137;28;21263;-80
2024/03/10 14:25:36;;;;;;;16.63;15.33;;;;;;;;;;4989910;28;20622;-81
2024/03/10 14:28:05;;;;;;;16.27;14.97;;;;;;;;;;4997777;28;20668;-80
2024/03/10 14:30:33;;;;;;;15.05;13.85;;;;;;;;;;5001817;28;20768;-79
2024/03/10 14:33:03;;;;;;;15.83;14.73;;;;;;;;;;4992663;28;20236;-81
2024/03/10 14:35:31;;;;;;;16.37;14.93;;;;;;;;;;5005006;28;20625;-80
2024/03/10 14:38:04;;;;;;;16.10;14.80;;;;;;;;;;4997110;28;21196;-81
2024/03/10 14:40:33;;;;;;;15.80;14.50;;;;;;;;;;4981282;28;20978;-80
2024/03/10 14:43:01;;;;;;;15.97;14.77;;;;;;;;;;4993989;28;20625;-82
2024/03/10 14:45:30;;;;;;;15.97;14.57;;;;;;;;;;5010297;28;20611;-83
2024/03/10 14:47:58;;;;;;;17.03;15.63;;;;;;;;;;4995215;28;20664;-85
2024/03/10 14:50:29;;;;;;;16.70;15.30;;;;;;;;;;4994854;28;20620;-81
2024/03/10 14:52:57;;;;;;;16.13;14.90;;;;;;;;;;4999204;28;20617;-80
2024/03/10 14:55:27;;;;;;;16.37;14.87;;;;;;;;;;4995934;28;20994;-81
2024/03/10 14:57:56;;;;;;;17.47;15.63;;;;;;;;;;4989427;28;20677;-82